createdAt,value
2022-08-31T00:02:12.898Z,23.30
2022-08-31T00:05:45.282Z,23.20
2022-08-31T00:08:39.833Z,23.10
2022-08-31T00:46:44.949Z,23.00
2022-08-31T00:49:31.315Z,22.80
2022-08-31T01:46:09.797Z,22.50
2022-08-31T01:56:51.770Z,22.40
2022-08-31T01:59:42.379Z,22.40
2022-08-31T02:16:41.726Z,25.70
2022-08-31T02:30:37.335Z,22.30
2022-08-31T02:33:23.153Z,22.30
2022-08-31T02:40:45.048Z,22.30
2022-08-31T02:43:26.172Z,22.30
2022-08-31T02:48:32.620Z,22.20
2022-08-31T02:51:21.995Z,22.20
2022-08-31T02:59:40.283Z,22.20
2022-08-31T03:06:52.467Z,22.20
2022-08-31T03:09:28.601Z,22.20
2022-08-31T03:13:00.472Z,22.20
2022-08-31T03:31:55.868Z,22.00
2022-08-31T03:37:22.626Z,22.00
2022-08-31T03:55:19.028Z,22.00
2022-08-31T03:57:55.596Z,21.90
2022-08-31T04:03:51.421Z,22.00
2022-08-31T04:16:40.252Z,22.00
2022-08-31T04:31:12.616Z,21.80
2022-08-31T04:36:16.277Z,21.80
2022-08-31T04:38:45.894Z,21.70
2022-08-31T04:41:36.506Z,21.70
2022-08-31T04:44:05.858Z,21.70
2022-08-31T04:46:48.646Z,21.70
2022-08-31T04:58:00.970Z,21.70
2022-08-31T05:00:48.442Z,21.70
2022-08-31T05:32:55.092Z,21.60
2022-08-31T05:37:52.849Z,21.50
2022-08-31T05:40:24.619Z,21.40
2022-08-31T05:42:52.831Z,21.30
2022-08-31T05:45:26.286Z,21.20
2022-08-31T05:50:12.740Z,21.10
2022-08-31T05:52:41.127Z,21.00
2022-08-31T05:57:47.744Z,20.70
2022-08-31T06:02:45.235Z,20.40
2022-08-31T06:07:47.247Z,20.30
2022-08-31T06:15:15.779Z,20.30
2022-08-31T06:20:17.925Z,20.30
2022-08-31T06:22:47.892Z,20.30
2022-08-31T06:25:19.623Z,20.40
2022-08-31T06:27:49.215Z,20.40
2022-08-31T06:30:19.311Z,20.40
2022-08-31T06:32:48.169Z,20.30
2022-08-31T06:35:18.362Z,20.40
2022-08-31T06:37:47.003Z,20.30
2022-08-31T06:40:15.375Z,20.40
2022-08-31T06:45:13.793Z,20.40
2022-08-31T06:47:42.112Z,20.30
2022-08-31T06:50:12.395Z,20.30
2022-08-31T06:52:44.924Z,20.30
2022-08-31T06:57:42.158Z,20.30
2022-08-31T07:00:11.794Z,20.40
2022-08-31T07:02:40.105Z,20.30
2022-08-31T07:05:11.528Z,20.30
2022-08-31T07:07:45.082Z,20.40
2022-08-31T07:10:13.568Z,20.30
2022-08-31T07:12:41.928Z,20.40
2022-08-31T07:15:10.957Z,20.40
2022-08-31T07:17:39.265Z,20.40
2022-08-31T07:20:08.668Z,20.40
2022-08-31T07:22:36.989Z,20.40
2022-08-31T07:25:11.048Z,20.40
2022-08-31T07:27:40.262Z,20.40
2022-08-31T07:30:09.874Z,20.40
2022-08-31T07:32:38.896Z,20.40
2022-08-31T07:35:09.349Z,20.40
2022-08-31T07:37:55.173Z,20.40
2022-08-31T07:40:42.177Z,20.20
2022-08-31T07:43:10.480Z,20.10
2022-08-31T07:45:39.279Z,20.00
2022-08-31T07:48:07.850Z,20.00
2022-08-31T07:50:38.301Z,20.00
2022-08-31T07:53:08.712Z,20.00
2022-08-31T07:55:39.251Z,19.90
2022-08-31T07:58:15.468Z,19.90
2022-08-31T08:00:49.443Z,19.90
2022-08-31T08:03:17.805Z,19.90
2022-08-31T08:05:47.564Z,20.10
2022-08-31T08:08:17.077Z,20.10
2022-08-31T08:10:52.653Z,20.20
2022-08-31T08:13:23.242Z,20.10
2022-08-31T08:15:52.537Z,20.00
2022-08-31T08:18:22.240Z,19.90
2022-08-31T08:20:52.978Z,20.00
2022-08-31T08:23:21.429Z,20.00
2022-08-31T08:26:01.641Z,20.10
2022-08-31T08:28:40.053Z,20.10
2022-08-31T08:31:12.981Z,20.30
2022-08-31T08:33:41.252Z,20.40
2022-08-31T08:36:10.195Z,20.40
2022-08-31T08:38:43.795Z,20.40
2022-08-31T08:41:19.220Z,20.40
2022-08-31T08:43:52.819Z,19.60
2022-08-31T08:46:37.373Z,20.40
2022-08-31T08:49:16.579Z,20.30
2022-08-31T08:51:47.958Z,20.40
2022-08-31T08:54:26.708Z,20.50
2022-08-31T08:56:58.009Z,20.60
2022-08-31T08:59:26.536Z,20.70
2022-08-31T09:02:07.182Z,20.60
2022-08-31T09:05:12.183Z,20.60
2022-08-31T09:08:05.174Z,20.60
2022-08-31T09:10:39.051Z,20.60
2022-08-31T09:13:22.869Z,20.60
2022-08-31T09:16:00.983Z,20.70
2022-08-31T09:18:42.625Z,20.70
2022-08-31T09:21:22.150Z,20.70
2022-08-31T09:24:02.121Z,20.80
2022-08-31T09:26:32.885Z,20.90
2022-08-31T09:29:04.668Z,20.90
2022-08-31T09:31:37.790Z,21.10
2022-08-31T09:34:14.447Z,21.20
2022-08-31T09:36:42.907Z,21.20
2022-08-31T09:39:33.052Z,21.20
2022-08-31T09:42:20.315Z,21.20
2022-08-31T09:44:59.222Z,21.20
2022-08-31T09:47:44.680Z,21.30
2022-08-31T09:50:27.412Z,21.40
2022-08-31T09:53:26.393Z,21.40
2022-08-31T09:56:14.291Z,21.50
2022-08-31T09:58:56.006Z,21.50
2022-08-31T10:01:35.978Z,21.60
2022-08-31T10:04:19.418Z,21.70
2022-08-31T10:06:58.055Z,21.80
2022-08-31T10:09:40.208Z,21.80
2022-08-31T10:12:17.103Z,21.90
2022-08-31T10:14:54.272Z,21.90
2022-08-31T10:17:32.011Z,21.90
2022-08-31T10:20:09.216Z,21.90
2022-08-31T10:22:45.268Z,21.90
2022-08-31T10:25:31.418Z,21.90
2022-08-31T10:28:06.348Z,21.80
2022-08-31T10:30:42.122Z,21.80
2022-08-31T10:33:18.141Z,21.90
2022-08-31T10:35:54.923Z,21.90
2022-08-31T10:38:30.436Z,21.90
2022-08-31T10:41:07.718Z,22.10
2022-08-31T10:43:44.798Z,22.20
2022-08-31T10:46:14.944Z,22.20
2022-08-31T10:48:53.264Z,22.30
2022-08-31T10:51:28.941Z,22.50
2022-08-31T10:54:06.831Z,22.60
2022-08-31T10:56:41.395Z,22.70
2022-08-31T10:59:23.856Z,22.80
2022-08-31T11:02:02.067Z,23.10
2022-08-31T11:04:52.024Z,23.10
2022-08-31T11:07:38.258Z,23.30
2022-08-31T11:10:20.031Z,23.70
2022-08-31T11:12:55.178Z,23.90
2022-08-31T11:16:07.097Z,23.90
2022-08-31T11:18:53.557Z,24.10
2022-08-31T11:22:05.623Z,24.20
2022-08-31T11:24:52.451Z,24.20
2022-08-31T11:27:24.700Z,24.30
2022-08-31T11:29:58.223Z,24.30
2022-08-31T11:32:34.254Z,24.50
2022-08-31T11:35:09.678Z,24.50
2022-08-31T11:37:56.062Z,24.80
2022-08-31T11:40:58.921Z,24.90
2022-08-31T11:43:52.236Z,25.00
2022-08-31T11:46:43.782Z,24.90
2022-08-31T11:49:36.910Z,24.80
2022-08-31T11:52:10.417Z,24.80
2022-08-31T11:55:08.960Z,24.80
2022-08-31T11:58:07.687Z,24.80
2022-08-31T12:00:49.426Z,24.90
2022-08-31T12:03:44.684Z,24.90
2022-08-31T12:06:52.985Z,24.80
2022-08-31T12:09:52.162Z,24.90
2022-08-31T12:12:31.815Z,24.90
2022-08-31T12:15:08.345Z,24.90
2022-08-31T12:17:47.093Z,25.00
2022-08-31T12:20:21.305Z,24.90
2022-08-31T12:23:31.304Z,24.80
2022-08-31T12:26:29.582Z,24.80
2022-08-31T12:29:24.278Z,24.70
2022-08-31T12:32:17.872Z,24.60
2022-08-31T12:34:50.737Z,24.60
2022-08-31T12:37:24.125Z,24.50
2022-08-31T12:40:08.399Z,24.40
2022-08-31T12:42:44.977Z,24.40
2022-08-31T12:45:17.008Z,24.50
2022-08-31T12:47:58.080Z,24.50
2022-08-31T12:50:36.688Z,24.60
2022-08-31T12:53:35.052Z,24.60
2022-08-31T12:56:12.187Z,24.70
2022-08-31T12:58:55.654Z,24.70
2022-08-31T13:01:27.261Z,24.60
2022-08-31T13:03:59.358Z,24.30
2022-08-31T13:06:30.297Z,24.30
2022-08-31T13:09:00.169Z,24.30
2022-08-31T13:11:40.968Z,24.20
2022-08-31T13:14:31.886Z,24.10
2022-08-31T13:17:06.480Z,23.90
2022-08-31T13:19:45.014Z,24.00
2022-08-31T13:22:19.810Z,23.90
2022-08-31T13:24:54.101Z,23.80
2022-08-31T13:27:24.755Z,23.80
2022-08-31T13:30:12.080Z,23.80
2022-08-31T13:32:45.666Z,23.80
2022-08-31T13:35:15.408Z,23.80
2022-08-31T13:38:04.907Z,23.90
2022-08-31T13:40:37.259Z,23.90
2022-08-31T13:43:08.649Z,23.90
2022-08-31T13:45:43.223Z,23.90
2022-08-31T13:48:15.868Z,23.90
2022-08-31T13:50:53.335Z,23.90
2022-08-31T13:53:40.805Z,23.90
2022-08-31T13:56:43.297Z,23.90
2022-08-31T13:59:27.340Z,23.90
2022-08-31T14:01:59.677Z,24.00
2022-08-31T14:04:48.491Z,24.00
2022-08-31T14:07:21.617Z,24.00
2022-08-31T14:09:52.506Z,24.00
2022-08-31T14:12:35.003Z,24.00
2022-08-31T14:15:19.946Z,24.10
2022-08-31T14:21:16.734Z,24.00
2022-08-31T14:23:39.175Z,24.00
2022-08-31T14:26:12.268Z,24.10
2022-08-31T14:28:45.736Z,24.10
2022-08-31T14:31:23.140Z,24.10
2022-08-31T14:33:59.891Z,24.10
2022-08-31T14:36:28.114Z,24.10
2022-08-31T14:38:58.994Z,24.10
2022-08-31T14:41:31.593Z,24.20
2022-08-31T14:44:06.966Z,24.20
2022-08-31T14:46:38.389Z,24.10
2022-08-31T14:49:09.517Z,24.10
2022-08-31T14:51:39.360Z,24.10
2022-08-31T14:54:09.001Z,24.00
2022-08-31T14:56:45.398Z,24.00
2022-08-31T14:59:16.603Z,24.00
2022-08-31T15:01:46.368Z,24.00
2022-08-31T15:04:18.531Z,24.00
2022-08-31T15:06:53.953Z,24.00
2022-08-31T15:09:22.984Z,24.00
2022-08-31T15:11:51.443Z,23.90
2022-08-31T15:14:19.875Z,24.00
2022-08-31T15:16:50.965Z,23.90
2022-08-31T15:19:48.095Z,23.90
2022-08-31T15:22:17.514Z,23.90
2022-08-31T15:24:45.917Z,23.80
2022-08-31T15:27:15.510Z,23.90
2022-08-31T15:29:45.534Z,23.90
2022-08-31T15:32:16.603Z,23.90
2022-08-31T15:34:50.038Z,23.80
2022-08-31T15:37:18.559Z,23.80
2022-08-31T15:39:52.794Z,23.80
2022-08-31T15:42:21.587Z,23.70
2022-08-31T15:44:56.128Z,23.70
2022-08-31T15:47:43.347Z,23.80
2022-08-31T15:50:13.519Z,23.70
2022-08-31T15:52:44.171Z,23.70
2022-08-31T15:55:23.507Z,23.60
2022-08-31T15:57:54.573Z,23.60
2022-08-31T16:00:25.015Z,23.60
2022-08-31T16:02:57.719Z,23.60
2022-08-31T16:05:30.624Z,23.60
2022-08-31T16:07:59.323Z,23.60
2022-08-31T16:12:57.204Z,23.60
2022-08-31T16:15:28.125Z,23.60
2022-08-31T16:17:58.591Z,23.70
2022-08-31T16:20:29.099Z,23.70
2022-08-31T16:22:59.407Z,23.60
2022-08-31T16:25:29.457Z,23.60
2022-08-31T16:28:00.119Z,23.60
2022-08-31T16:30:29.726Z,23.70
2022-08-31T16:35:28.683Z,23.60
2022-08-31T16:37:57.183Z,23.50
2022-08-31T16:40:27.246Z,23.60
2022-08-31T16:46:18.963Z,23.50
2022-08-31T16:49:10.430Z,23.50
2022-08-31T16:51:42.141Z,23.50
2022-08-31T16:54:13.469Z,23.50
2022-08-31T16:56:52.100Z,23.40
2022-08-31T16:59:20.941Z,23.40
2022-08-31T17:01:49.494Z,23.40
2022-08-31T17:04:35.049Z,23.40
2022-08-31T17:07:12.413Z,23.40
2022-08-31T17:09:44.817Z,23.40
2022-08-31T17:12:15.631Z,23.40
2022-08-31T17:14:48.521Z,23.40
2022-08-31T17:17:19.569Z,23.40
2022-08-31T17:19:48.437Z,23.40
2022-08-31T17:22:31.877Z,23.40
2022-08-31T17:25:03.604Z,23.50
2022-08-31T17:27:33.831Z,23.40
2022-08-31T17:30:06.265Z,23.40
2022-08-31T17:32:44.576Z,23.40
2022-08-31T17:35:18.940Z,23.30
2022-08-31T17:37:50.215Z,23.30
2022-08-31T17:40:21.476Z,23.30
2022-08-31T17:42:55.002Z,23.30
2022-08-31T17:45:27.483Z,23.20
2022-08-31T17:50:27.453Z,23.20
2022-08-31T17:52:57.736Z,23.20
2022-08-31T17:57:55.261Z,23.10
2022-08-31T18:02:53.294Z,23.00
2022-08-31T18:05:23.167Z,23.00
2022-08-31T18:07:51.913Z,22.90
2022-08-31T18:10:22.281Z,22.90
2022-08-31T18:12:50.948Z,22.80
2022-08-31T18:15:20.303Z,22.80
2022-08-31T18:20:20.314Z,22.70
2022-08-31T19:14:20.912Z,22.10
2022-08-31T19:16:55.217Z,22.10
2022-08-31T19:19:35.008Z,22.10
2022-08-31T19:22:03.674Z,22.00
2022-08-31T19:24:33.948Z,21.90
2022-08-31T19:29:33.479Z,21.90
2022-08-31T19:32:06.607Z,21.90
2022-08-31T19:34:37.738Z,21.90
2022-08-31T19:37:07.887Z,21.90
2022-08-31T19:39:37.694Z,21.80
2022-08-31T19:42:09.560Z,21.80
2022-08-31T19:45:22.758Z,21.80
2022-08-31T19:47:32.470Z,21.70
2022-08-31T19:50:01.675Z,21.70
2022-08-31T19:52:30.252Z,21.70
2022-08-31T20:00:10.836Z,21.60
2022-08-31T20:03:22.463Z,21.60
2022-08-31T20:08:40.387Z,21.50
2022-08-31T20:11:32.016Z,21.50
2022-08-31T20:14:02.899Z,21.50
2022-08-31T20:16:41.130Z,21.50
2022-08-31T20:19:19.549Z,21.40
2022-08-31T20:24:25.012Z,21.40
2022-08-31T20:27:09.537Z,21.40
2022-08-31T20:34:53.442Z,21.30
2022-08-31T20:42:22.931Z,21.20
2022-08-31T20:44:51.434Z,21.20
2022-08-31T20:47:36.887Z,21.20
2022-08-31T20:50:11.542Z,21.20
2022-08-31T20:52:40.529Z,21.10
2022-08-31T20:55:12.478Z,21.10
2022-08-31T20:57:41.920Z,21.10
2022-08-31T21:00:11.645Z,21.10
2022-08-31T21:02:40.721Z,21.10
2022-08-31T21:08:02.644Z,21.10
2022-08-31T21:10:37.519Z,21.10
2022-08-31T21:13:10.396Z,21.10
2022-08-31T21:15:43.339Z,21.10
2022-08-31T21:18:11.992Z,21.00
2022-08-31T21:20:43.493Z,21.00
2022-08-31T21:23:13.782Z,21.00
2022-08-31T21:25:45.152Z,21.00
2022-08-31T21:28:14.721Z,20.90
2022-08-31T21:30:42.946Z,20.90
2022-08-31T21:33:11.293Z,20.80
2022-08-31T21:35:39.545Z,20.80
2022-08-31T21:38:13.479Z,20.70
2022-08-31T21:40:48.721Z,20.80
2022-08-31T21:43:17.118Z,20.80
2022-08-31T21:48:14.385Z,20.70
2022-08-31T21:50:42.569Z,20.70
2022-08-31T21:53:12.499Z,20.70
2022-08-31T21:55:40.875Z,20.70
2022-08-31T22:00:42.225Z,20.60
2022-08-31T22:03:11.469Z,20.60
2022-08-31T22:05:41.654Z,20.60
2022-08-31T22:10:43.157Z,20.50
2022-08-31T22:13:13.182Z,20.50
2022-08-31T22:15:42.835Z,20.40
2022-08-31T22:18:46.426Z,20.30
2022-08-31T22:26:00.144Z,20.30
2022-08-31T22:28:28.461Z,20.30
2022-08-31T22:30:57.903Z,20.30
2022-08-31T22:33:26.258Z,20.30
2022-08-31T22:35:57.018Z,20.30
2022-08-31T22:38:25.327Z,20.20
2022-08-31T22:40:53.585Z,20.20
2022-08-31T22:43:23.260Z,20.10
2022-08-31T22:45:51.682Z,20.10
2022-08-31T22:48:20.087Z,20.10
2022-08-31T22:50:48.332Z,20.10
2022-08-31T22:53:16.582Z,20.00
2022-08-31T22:58:13.813Z,19.90
2022-08-31T23:00:48.228Z,19.90
2022-08-31T23:03:16.733Z,19.90
2022-08-31T23:08:14.051Z,19.80
2022-08-31T23:10:43.165Z,19.80
2022-08-31T23:13:11.366Z,19.80
2022-08-31T23:15:40.522Z,19.80
2022-08-31T23:18:10.784Z,19.80
2022-08-31T23:20:41.144Z,19.80
2022-08-31T23:23:10.110Z,19.70
2022-08-31T23:25:41.079Z,19.70
2022-08-31T23:28:09.990Z,19.70
2022-08-31T23:30:38.426Z,19.60
2022-08-31T23:33:06.953Z,19.60
2022-08-31T23:35:37.305Z,19.50
2022-08-31T23:38:05.513Z,19.40
2022-08-31T23:40:34.049Z,19.40
2022-08-31T23:48:01.654Z,19.40
2022-08-31T23:50:30.561Z,19.30
2022-08-31T23:53:00.546Z,19.30
2022-08-31T23:55:30.291Z,19.30
2022-08-31T23:57:59.374Z,19.20
